Time;durP1;ratioP1;P1;durP2;ratioP2;P2;SDS_P1;SDS_P2;PMS_P1;PMS_P2;Temp;Humidity;BMP_temperature;BMP_pressure;BME280_temperature;BME280_humidity;BME280_pressure;Samples;Min_cycle;Max_cycle;Signal;HPM_P1;HPM_P2
2024/01/15 00:01:58;;;;;;;;;;;22.20;99.90;;;;;;5092915;28;19908;-63
2024/01/15 00:04:25;;;;;;;;;;;22.10;99.90;;;;;;5092964;28;19908;-65
2024/01/15 00:06:51;;;;;;;;;;;22.00;99.90;;;;;;5093166;28;19912;-67
2024/01/15 00:09:18;;;;;;;;;;;22.00;99.90;;;;;;5092722;28;19908;-65
2024/01/15 00:11:44;;;;;;;;;;;22.00;99.90;;;;;;5092919;28;20007;-61
2024/01/15 00:14:11;;;;;;;;;;;22.00;99.90;;;;;;5092821;28;19953;-67
2024/01/15 00:16:40;;;;;;;;;;;22.20;99.90;;;;;;5092727;28;19908;-67
2024/01/15 00:19:07;;;;;;;;;;;22.20;99.90;;;;;;5092573;28;20342;-62
2024/01/15 00:21:33;;;;;;;;;;;22.10;99.90;;;;;;5092752;28;20000;-68
2024/01/15 00:24:00;;;;;;;;;;;22.30;99.90;;;;;;5092595;28;19915;-62
2024/01/15 00:26:27;;;;;;;;;;;22.50;99.90;;;;;;5092851;28;19908;-69
2024/01/15 00:28:53;;;;;;;;;;;22.70;99.90;;;;;;5092667;28;19947;-64
2024/01/15 00:31:20;;;;;;;;;;;22.90;99.90;;;;;;5092270;28;19920;-67
2024/01/15 00:33:47;;;;;;;;;;;23.00;99.90;;;;;;5092507;28;19914;-62
2024/01/15 00:36:14;;;;;;;;;;;23.30;99.90;;;;;;5092732;28;19956;-67
2024/01/15 00:38:41;;;;;;;;;;;23.40;99.90;;;;;;5092471;28;19951;-67
2024/01/15 00:41:07;;;;;;;;;;;23.50;99.90;;;;;;5092698;28;19940;-66
2024/01/15 00:43:34;;;;;;;;;;;23.60;99.90;;;;;;5092541;28;19908;-66
2024/01/15 00:46:06;;;;;;;;;;;23.80;99.90;;;;;;5092603;28;19908;-67
2024/01/15 00:48:34;;;;;;;;;;;23.80;99.90;;;;;;5095680;28;19916;-69
2024/01/15 00:51:01;;;;;;;;;;;23.90;99.90;;;;;;5096061;28;20284;-67
2024/01/15 00:53:28;;;;;;;;;;;24.00;99.90;;;;;;5096482;28;20357;-61
2024/01/15 00:55:55;;;;;;;;;;;23.80;99.90;;;;;;5096124;28;19920;-65
2024/01/15 00:58:27;;;;;;;;;;;23.70;99.90;;;;;;5096178;28;20291;-65
2024/01/15 01:00:55;;;;;;;;;;;23.50;99.90;;;;;;5096071;28;19947;-69
2024/01/15 01:03:24;;;;;;;;;;;23.40;99.90;;;;;;5096015;28;19912;-67
2024/01/15 01:06:00;;;;;;;;;;;23.30;99.90;;;;;;5096023;28;20317;-68
2024/01/15 01:08:27;;;;;;;;;;;23.20;99.90;;;;;;5096137;28;19908;-64
2024/01/15 01:10:55;;;;;;;;;;;23.20;99.90;;;;;;5095884;28;20423;-68
2024/01/15 01:13:22;;;;;;;;;;;23.10;99.90;;;;;;5060949;28;19918;-68
2024/01/15 01:15:49;;;;;;;;;;;23.10;99.90;;;;;;5095877;28;19908;-64
2024/01/15 01:18:16;;;;;;;;;;;23.00;99.90;;;;;;5095950;28;19916;-68
2024/01/15 01:20:43;;;;;;;;;;;23.10;99.90;;;;;;5095630;28;19908;-64
2024/01/15 01:23:10;;;;;;;;;;;23.20;99.90;;;;;;5095708;28;19919;-71
2024/01/15 01:25:38;;;;;;;;;;;23.20;99.90;;;;;;5095940;28;19961;-66
2024/01/15 01:28:05;;;;;;;;;;;23.10;99.90;;;;;;5095765;28;19908;-68
2024/01/15 01:30:32;;;;;;;;;;;23.20;99.90;;;;;;5095961;28;19912;-63
2024/01/15 01:32:58;;;;;;;;;;;23.10;99.90;;;;;;5095630;28;19967;-62
2024/01/15 01:35:25;;;;;;;;;;;23.00;99.90;;;;;;5095493;28;20391;-63
2024/01/15 01:37:53;;;;;;;;;;;23.10;99.90;;;;;;5095349;28;20003;-66
2024/01/15 01:40:20;;;;;;;;;;;23.00;99.90;;;;;;5095361;28;20383;-63
2024/01/15 01:42:48;;;;;;;;;;;23.00;99.90;;;;;;5095167;28;20337;-65
2024/01/15 01:45:15;;;;;;;;;;;23.00;99.90;;;;;;5095395;28;19935;-63
2024/01/15 01:47:42;;;;;;;;;;;23.00;99.90;;;;;;5095392;28;20010;-64
2024/01/15 01:50:14;;;;;;;;;;;23.10;99.90;;;;;;5095382;28;19908;-65
2024/01/15 01:52:43;;;;;;;;;;;23.10;99.90;;;;;;5095042;28;19921;-66
2024/01/15 01:55:11;;;;;;;;;;;23.10;99.90;;;;;;5095003;28;19928;-62
2024/01/15 01:57:38;;;;;;;;;;;23.30;99.90;;;;;;5095193;28;20388;-62
2024/01/15 02:00:06;;;;;;;;;;;23.30;99.90;;;;;;5076595;28;20429;-63
2024/01/15 02:02:34;;;;;;;;;;;23.20;99.90;;;;;;5094134;28;19908;-66
2024/01/15 02:05:04;;;;;;;;;;;23.20;99.90;;;;;;5095232;28;20304;-63
2024/01/15 02:07:32;;;;;;;;;;;23.30;99.90;;;;;;5095168;28;19908;-62
2024/01/15 02:09:59;;;;;;;;;;;23.40;99.90;;;;;;5094932;28;19915;-64
2024/01/15 02:12:26;;;;;;;;;;;23.50;99.90;;;;;;5094760;28;19916;-62
2024/01/15 02:14:54;;;;;;;;;;;23.70;99.90;;;;;;5076479;28;20376;-67
2024/01/15 02:17:21;;;;;;;;;;;23.70;99.90;;;;;;5094715;28;20262;-63
2024/01/15 02:19:48;;;;;;;;;;;23.80;99.90;;;;;;5094687;28;20373;-63
2024/01/15 02:22:15;;;;;;;;;;;23.90;99.90;;;;;;5094520;28;19908;-65
2024/01/15 02:24:42;;;;;;;;;;;24.00;99.90;;;;;;5075812;28;19908;-66
2024/01/15 02:27:10;;;;;;;;;;;24.00;99.90;;;;;;5094747;28;19909;-61
2024/01/15 02:29:37;;;;;;;;;;;24.10;99.90;;;;;;5094692;28;19912;-62
2024/01/15 02:32:09;;;;;;;;;;;24.10;99.90;;;;;;5094748;28;20365;-62
2024/01/15 02:34:40;;;;;;;;;;;24.10;99.90;;;;;;5094738;28;19958;-68
2024/01/15 02:37:07;;;;;;;;;;;24.20;99.90;;;;;;5094098;28;19951;-65
2024/01/15 02:39:39;;;;;;;;;;;24.30;99.90;;;;;;5094428;28;19909;-66
2024/01/15 02:42:06;;;;;;;;;;;24.50;99.90;;;;;;5094515;28;19908;-71
2024/01/15 02:44:33;;;;;;;;;;;24.70;99.90;;;;;;5075897;28;20281;-61
2024/01/15 02:47:00;;;;;;;;;;;25.00;99.90;;;;;;5094257;28;19998;-66
2024/01/15 02:49:35;;;;;;;;;;;25.30;99.90;;;;;;5094146;28;19916;-64
2024/01/15 02:52:06;;;;;;;;;;;25.60;99.90;;;;;;5093959;28;19959;-63
2024/01/15 02:54:34;;;;;;;;;;;25.70;99.90;;;;;;5093961;28;20313;-62
2024/01/15 02:57:05;;;;;;;;;;;26.10;99.90;;;;;;5093956;28;20019;-64
2024/01/15 02:59:32;;;;;;;;;;;26.50;99.90;;;;;;5093940;28;19909;-64
2024/01/15 03:01:59;;;;;;;;;;;26.60;99.90;;;;;;5094044;28;20007;-62
2024/01/15 03:04:26;;;;;;;;;;;26.70;99.90;;;;;;5093927;28;19914;-68
2024/01/15 03:06:53;;;;;;;;;;;26.70;99.90;;;;;;5092954;28;19908;-66
2024/01/15 03:09:22;;;;;;;;;;;26.70;99.90;;;;;;5093708;28;20253;-65
2024/01/15 03:11:49;;;;;;;;;;;26.70;99.90;;;;;;5092605;28;20003;-66
2024/01/15 03:14:18;;;;;;;;;;;26.70;99.90;;;;;;5093547;28;19908;-64
2024/01/15 03:16:45;;;;;;;;;;;26.60;99.90;;;;;;5093989;28;19908;-64
2024/01/15 03:19:15;;;;;;;;;;;26.70;99.90;;;;;;5093481;28;19908;-62
2024/01/15 03:21:42;;;;;;;;;;;26.80;99.90;;;;;;5093454;28;20019;-67
2024/01/15 03:24:10;;;;;;;;;;;26.80;99.90;;;;;;5093687;28;20300;-66
2024/01/15 03:26:37;;;;;;;;;;;26.80;99.90;;;;;;5075537;28;19915;-63
2024/01/15 03:29:04;;;;;;;;;;;26.90;99.90;;;;;;5093457;28;20387;-61
2024/01/15 03:31:31;;;;;;;;;;;26.80;99.90;;;;;;5093370;28;20442;-67
2024/01/15 03:33:58;;;;;;;;;;;26.70;99.90;;;;;;5093104;28;20357;-66
2024/01/15 03:36:25;;;;;;;;;;;26.50;99.90;;;;;;5093367;28;19912;-64
2024/01/15 03:38:52;;;;;;;;;;;26.30;99.90;;;;;;5092348;28;19934;-67
2024/01/15 03:41:19;;;;;;;;;;;26.30;99.90;;;;;;5093398;28;19908;-64
2024/01/15 03:43:46;;;;;;;;;;;26.10;99.90;;;;;;5093096;28;19915;-62
2024/01/15 03:46:13;;;;;;;;;;;26.10;99.90;;;;;;5093041;28;19908;-62
2024/01/15 03:48:40;;;;;;;;;;;26.60;99.90;;;;;;5093264;28;19960;-66
2024/01/15 03:51:07;;;;;;;;;;;27.20;99.90;;;;;;5093243;28;19923;-64
2024/01/15 03:53:34;;;;;;;;;;;27.30;99.90;;;;;;5093060;28;20281;-66
2024/01/15 03:56:02;;;;;;;;;;;27.40;99.90;;;;;;5092623;28;19920;-61
2024/01/15 03:58:29;;;;;;;;;;;27.20;99.90;;;;;;5093058;28;19949;-62
2024/01/15 04:00:56;;;;;;;;;;;27.60;99.90;;;;;;5093153;28;19912;-64
2024/01/15 04:03:23;;;;;;;;;;;28.20;99.80;;;;;;5092223;28;19908;-61
2024/01/15 04:05:50;;;;;;;;;;;28.60;98.80;;;;;;5093180;28;19912;-64
2024/01/15 04:08:17;;;;;;;;;;;28.70;98.20;;;;;;5092852;28;19909;-63
2024/01/15 04:10:44;;;;;;;;;;;28.70;97.00;;;;;;5092839;28;19912;-61
2024/01/15 04:13:11;;;;;;;;;;;28.60;97.80;;;;;;5092931;28;19918;-67
2024/01/15 04:15:38;;;;;;;;;;;29.10;96.60;;;;;;5092922;28;19908;-63
2024/01/15 04:18:05;;;;;;;;;;;29.10;96.80;;;;;;5092619;28;20430;-65
2024/01/15 04:20:32;;;;;;;;;;;29.30;96.80;;;;;;5092911;28;19965;-66
2024/01/15 04:23:01;;;;;;;;;;;29.70;96.10;;;;;;5095323;28;19915;-68
2024/01/15 04:25:28;;;;;;;;;;;30.10;95.70;;;;;;5096892;28;19908;-69
2024/01/15 04:27:56;;;;;;;;;;;30.20;95.00;;;;;;5096919;28;19934;-64
2024/01/15 04:30:23;;;;;;;;;;;29.70;94.50;;;;;;5095893;28;20262;-62
2024/01/15 04:32:51;;;;;;;;;;;29.40;94.90;;;;;;5078437;28;19920;-63
2024/01/15 04:35:17;;;;;;;;;;;29.30;96.50;;;;;;5096988;28;19908;-62
2024/01/15 04:37:46;;;;;;;;;;;28.90;95.30;;;;;;5096834;28;19954;-65
2024/01/15 04:40:13;;;;;;;;;;;28.50;95.80;;;;;;5096850;28;19908;-65
2024/01/15 04:42:40;;;;;;;;;;;28.10;96.60;;;;;;5096675;28;19908;-69
2024/01/15 04:45:08;;;;;;;;;;;27.70;97.50;;;;;;5096305;28;19991;-68
2024/01/15 04:47:36;;;;;;;;;;;27.30;98.00;;;;;;5078317;28;19909;-62
2024/01/15 04:50:04;;;;;;;;;;;26.80;98.90;;;;;;5096314;28;19908;-66
2024/01/15 04:52:31;;;;;;;;;;;26.40;99.30;;;;;;5096396;28;19916;-67
2024/01/15 04:54:58;;;;;;;;;;;26.10;99.60;;;;;;5096383;28;19912;-65
2024/01/15 04:57:25;;;;;;;;;;;25.70;99.90;;;;;;5096089;28;20371;-65
2024/01/15 04:59:52;;;;;;;;;;;25.40;99.90;;;;;;5078292;28;20064;-68
2024/01/15 05:02:18;;;;;;;;;;;25.20;99.90;;;;;;5095647;28;19904;-65
2024/01/15 05:04:45;;;;;;;;;;;25.20;99.90;;;;;;5096153;28;20376;-63
2024/01/15 05:07:12;;;;;;;;;;;25.20;99.90;;;;;;5096225;28;20443;-68
2024/01/15 05:09:38;;;;;;;;;;;25.50;99.90;;;;;;5096038;28;20281;-64
2024/01/15 05:12:05;;;;;;;;;;;25.50;99.90;;;;;;5096035;28;19920;-66
2024/01/15 05:14:32;;;;;;;;;;;25.60;99.90;;;;;;5077941;28;19912;-66
2024/01/15 05:16:59;;;;;;;;;;;26.10;99.90;;;;;;5095932;28;19946;-62
2024/01/15 05:19:25;;;;;;;;;;;26.50;99.80;;;;;;5095718;28;19995;-63
2024/01/15 05:21:52;;;;;;;;;;;26.40;99.90;;;;;;5095851;28;19908;-66
2024/01/15 05:24:18;;;;;;;;;;;26.50;99.90;;;;;;5095646;28;19908;-62
2024/01/15 05:26:45;;;;;;;;;;;26.50;99.70;;;;;;5096215;28;20345;-65
2024/01/15 05:29:12;;;;;;;;;;;26.40;99.90;;;;;;5095966;28;19912;-61
2024/01/15 05:31:38;;;;;;;;;;;26.20;99.90;;;;;;5095692;28;19923;-69
2024/01/15 05:34:05;;;;;;;;;;;26.10;99.90;;;;;;5094436;28;19908;-62
2024/01/15 05:36:32;;;;;;;;;;;25.80;99.90;;;;;;5095735;28;19912;-66
2024/01/15 05:38:58;;;;;;;;;;;25.90;99.90;;;;;;5095622;28;19908;-67
2024/01/15 05:41:25;;;;;;;;;;;25.90;99.90;;;;;;5095361;28;19908;-64
2024/01/15 05:43:51;;;;;;;;;;;26.00;99.90;;;;;;5095309;28;19913;-64
2024/01/15 05:46:18;;;;;;;;;;;26.10;99.90;;;;;;5095315;28;19915;-61
2024/01/15 05:48:45;;;;;;;;;;;26.10;99.90;;;;;;5095552;28;19908;-62
2024/01/15 05:51:12;;;;;;;;;;;26.10;99.90;;;;;;5095145;28;20047;-64
2024/01/15 05:53:41;;;;;;;;;;;26.20;99.90;;;;;;5095184;28;20002;-65
2024/01/15 05:56:08;;;;;;;;;;;26.20;99.90;;;;;;5095129;28;19963;-62
2024/01/15 05:58:34;;;;;;;;;;;26.10;99.90;;;;;;5097838;28;20000;-67
2024/01/15 06:01:01;;;;;;;;;;;26.00;99.90;;;;;;5094804;28;20357;-68
2024/01/15 06:03:27;;;;;;;;;;;25.80;99.90;;;;;;5093562;28;19908;-63
2024/01/15 06:05:54;;;;;;;;;;;25.70;99.90;;;;;;5095182;28;20353;-65
2024/01/15 06:08:21;;;;;;;;;;;25.50;99.90;;;;;;5095210;28;19908;-61
2024/01/15 06:10:47;;;;;;;;;;;25.30;99.90;;;;;;5094323;28;20253;-69
2024/01/15 06:13:14;;;;;;;;;;;25.10;99.90;;;;;;5108389;27;19922;-62
2024/01/15 06:15:40;;;;;;;;;;;24.90;99.90;;;;;;5113500;28;19919;-63
2024/01/15 06:18:07;;;;;;;;;;;24.80;99.90;;;;;;5113842;28;19908;-67
2024/01/15 06:20:34;;;;;;;;;;;24.50;99.90;;;;;;5114827;28;19995;-63
2024/01/15 06:23:00;;;;;;;;;;;24.30;99.90;;;;;;5113699;28;20349;-70
2024/01/15 06:25:27;;;;;;;;;;;24.10;99.90;;;;;;5114745;28;19914;-66
2024/01/15 06:27:53;;;;;;;;;;;23.90;99.90;;;;;;5115035;28;19961;-60
2024/01/15 06:30:20;;;;;;;;;;;23.80;99.90;;;;;;5115086;28;20059;-66
2024/01/15 06:32:47;;;;;;;;;;;23.70;99.90;;;;;;5114723;28;19916;-68
2024/01/15 06:35:13;;;;;;;;;;;23.60;99.90;;;;;;5114833;28;19919;-64
2024/01/15 06:37:40;;;;;;;;;;;23.50;99.90;;;;;;5114559;28;19911;-65
2024/01/15 06:40:07;;;;;;;;;;;23.50;99.90;;;;;;5114771;28;19908;-68
2024/01/15 06:42:34;;;;;;;;;;;23.70;99.90;;;;;;5114474;28;19907;-66
2024/01/15 06:45:01;;;;;;;;;;;23.70;99.90;;;;;;5114373;28;19914;-63
2024/01/15 06:47:27;;;;;;;;;;;23.80;99.90;;;;;;5114521;28;19907;-67
2024/01/15 06:49:54;;;;;;;;;;;23.80;99.90;;;;;;5114711;28;20332;-66
2024/01/15 06:52:21;;;;;;;;;;;23.80;99.90;;;;;;5114368;28;19962;-68
2024/01/15 06:54:48;;;;;;;;;;;23.90;99.90;;;;;;5114434;28;20044;-65
2024/01/15 06:57:15;;;;;;;;;;;24.10;99.90;;;;;;5114610;28;20752;-68
2024/01/15 06:59:41;;;;;;;;;;;24.20;99.90;;;;;;5114193;28;20298;-63
2024/01/15 07:02:08;;;;;;;;;;;24.30;99.90;;;;;;5113975;28;19911;-62
2024/01/15 07:04:34;;;;;;;;;;;24.20;99.90;;;;;;5095902;28;20288;-64
2024/01/15 07:07:01;;;;;;;;;;;24.20;99.90;;;;;;5114246;28;19983;-63
2024/01/15 07:09:28;;;;;;;;;;;24.10;99.90;;;;;;5101708;28;20365;-71
2024/01/15 07:11:56;;;;;;;;;;;24.10;99.90;;;;;;5096386;28;20291;-64
2024/01/15 07:14:23;;;;;;;;;;;24.10;99.90;;;;;;5093538;28;19909;-67
2024/01/15 07:16:50;;;;;;;;;;;24.00;99.90;;;;;;5093942;28;19948;-64
2024/01/15 07:19:16;;;;;;;;;;;24.00;99.90;;;;;;5099310;28;20284;-66
2024/01/15 07:21:43;;;;;;;;;;;24.00;99.90;;;;;;5101967;28;19918;-66
2024/01/15 07:24:10;;;;;;;;;;;23.90;99.90;;;;;;5093225;28;20001;-66
2024/01/15 07:26:37;;;;;;;;;;;23.90;99.90;;;;;;5105519;28;20373;-68
2024/01/15 07:29:03;;;;;;;;;;;23.90;99.90;;;;;;5113725;28;19908;-67
2024/01/15 07:31:30;;;;;;;;;;;23.80;99.90;;;;;;5104099;28;19962;-69
2024/01/15 07:33:57;;;;;;;;;;;23.80;99.90;;;;;;5093219;28;19916;-65
2024/01/15 07:36:23;;;;;;;;;;;23.90;99.90;;;;;;5092750;28;19908;-70
2024/01/15 07:38:50;;;;;;;;;;;23.90;99.90;;;;;;5092281;28;19915;-67
2024/01/15 07:41:16;;;;;;;;;;;23.90;99.90;;;;;;5092669;28;19908;-70
2024/01/15 07:43:43;;;;;;;;;;;24.00;99.90;;;;;;5092033;28;19908;-63
2024/01/15 07:46:10;;;;;;;;;;;23.90;99.90;;;;;;5091452;28;19990;-69
2024/01/15 07:48:36;;;;;;;;;;;23.90;99.90;;;;;;5093104;28;19957;-65
2024/01/15 07:51:04;;;;;;;;;;;24.00;99.90;;;;;;5093049;28;19908;-62
2024/01/15 07:53:30;;;;;;;;;;;24.00;99.90;;;;;;5092934;28;20310;-68
2024/01/15 07:55:57;;;;;;;;;;;24.00;99.90;;;;;;5092968;28;20019;-66
2024/01/15 07:58:23;;;;;;;;;;;24.00;99.90;;;;;;5092176;28;20332;-68
2024/01/15 08:00:51;;;;;;;;;;;24.10;99.90;;;;;;5092929;28;19915;-67
2024/01/15 08:03:18;;;;;;;;;;;24.00;99.90;;;;;;5092699;28;20022;-67
2024/01/15 08:05:44;;;;;;;;;;;24.00;99.90;;;;;;5092992;28;19908;-67
2024/01/15 08:08:11;;;;;;;;;;;23.90;99.90;;;;;;5092825;28;20281;-66
2024/01/15 08:10:38;;;;;;;;;;;23.90;99.90;;;;;;5092809;28;20316;-67
2024/01/15 08:13:04;;;;;;;;;;;23.80;99.90;;;;;;5092716;28;20361;-67
2024/01/15 08:15:31;;;;;;;;;;;23.80;99.90;;;;;;5092981;28;20265;-66
2024/01/15 08:17:58;;;;;;;;;;;23.80;99.90;;;;;;5092982;28;20365;-67
2024/01/15 08:20:25;;;;;;;;;;;23.70;99.90;;;;;;5092658;28;19947;-62
2024/01/15 08:22:52;;;;;;;;;;;23.70;99.90;;;;;;5092725;28;19973;-68
2024/01/15 08:25:19;;;;;;;;;;;23.60;99.90;;;;;;5092669;28;19942;-65
2024/01/15 08:27:45;;;;;;;;;;;23.40;99.90;;;;;;5092739;28;19912;-66
2024/01/15 08:30:12;;;;;;;;;;;23.40;99.90;;;;;;5092839;28;20341;-65
2024/01/15 08:32:42;;;;;;;;;;;23.30;99.90;;;;;;5092541;28;19923;-67
2024/01/15 08:35:09;;;;;;;;;;;23.20;99.90;;;;;;5092782;28;19908;-63
2024/01/15 08:37:35;;;;;;;;;;;23.20;99.90;;;;;;5092745;28;19908;-67
2024/01/15 08:40:03;;;;;;;;;;;23.10;99.90;;;;;;5092533;28;20328;-63
2024/01/15 08:42:30;;;;;;;;;;;23.10;99.90;;;;;;5092677;28;19991;-64
2024/01/15 08:44:56;;;;;;;;;;;23.10;99.90;;;;;;5092345;28;19950;-68
2024/01/15 08:47:23;;;;;;;;;;;23.10;99.90;;;;;;5092974;28;20295;-67
2024/01/15 08:49:49;;;;;;;;;;;23.10;99.90;;;;;;5092731;28;19908;-65
2024/01/15 08:52:16;;;;;;;;;;;23.00;99.90;;;;;;5092439;28;19916;-67
2024/01/15 08:54:43;;;;;;;;;;;23.00;99.90;;;;;;5092652;28;20315;-66
2024/01/15 08:57:11;;;;;;;;;;;23.00;99.90;;;;;;5092488;28;19912;-68
2024/01/15 08:59:38;;;;;;;;;;;23.00;99.90;;;;;;5092422;28;20017;-68
2024/01/15 09:02:05;;;;;;;;;;;23.00;99.90;;;;;;5092431;28;19953;-67
2024/01/15 09:04:31;;;;;;;;;;;23.00;99.90;;;;;;5092261;28;20314;-61
2024/01/15 09:06:58;;;;;;;;;;;23.00;99.90;;;;;;5092242;28;19912;-65
2024/01/15 09:09:25;;;;;;;;;;;23.00;99.90;;;;;;5093737;28;19959;-67
2024/01/15 09:11:52;;;;;;;;;;;23.00;99.90;;;;;;5096093;28;19920;-66
2024/01/15 09:14:18;;;;;;;;;;;22.90;99.90;;;;;;5096121;28;19909;-63
2024/01/15 09:16:45;;;;;;;;;;;22.90;99.90;;;;;;5095975;28;19916;-66
2024/01/15 09:19:12;;;;;;;;;;;22.90;99.90;;;;;;5095912;28;19974;-67
2024/01/15 09:21:39;;;;;;;;;;;22.90;99.90;;;;;;5096198;28;19995;-68
2024/01/15 09:24:06;;;;;;;;;;;22.90;99.90;;;;;;5095806;28;19947;-61
2024/01/15 09:26:32;;;;;;;;;;;22.70;99.90;;;;;;5096124;28;19908;-68
2024/01/15 09:28:59;;;;;;;;;;;22.70;99.90;;;;;;5095768;28;19916;-67
2024/01/15 09:31:26;;;;;;;;;;;22.60;99.90;;;;;;5095604;28;19916;-66
2024/01/15 09:33:56;;;;;;;;;;;22.60;99.90;;;;;;5095575;28;19916;-64
2024/01/15 09:36:22;;;;;;;;;;;22.60;99.90;;;;;;5095463;28;20365;-64
2024/01/15 09:38:49;;;;;;;;;;;22.50;99.90;;;;;;5077488;28;20260;-65
2024/01/15 09:41:16;;;;;;;;;;;22.40;99.90;;;;;;5095744;28;19908;-67
2024/01/15 09:43:43;;;;;;;;;;;22.30;99.90;;;;;;5095418;28;19951;-63
2024/01/15 09:46:10;;;;;;;;;;;22.20;99.90;;;;;;5095361;28;19912;-67
2024/01/15 09:48:38;;;;;;;;;;;22.20;99.90;;;;;;5095687;28;19908;-66
2024/01/15 09:51:07;;;;;;;;;;;22.20;99.90;;;;;;5095209;28;20258;-65
2024/01/15 09:53:34;;;;;;;;;;;22.20;99.90;;;;;;5095304;28;19908;-68
2024/01/15 09:56:01;;;;;;;;;;;22.10;99.90;;;;;;5095280;28;19928;-67
2024/01/15 09:58:29;;;;;;;;;;;22.10;99.90;;;;;;5095593;28;20913;-69
2024/01/15 10:00:56;;;;;;;;;;;22.10;99.90;;;;;;5095252;28;20262;-62
2024/01/15 10:03:23;;;;;;;;;;;22.10;99.90;;;;;;5094878;28;20353;-68
2024/01/15 10:05:50;;;;;;;;;;;22.10;99.90;;;;;;5095019;28;19912;-63
2024/01/15 10:08:17;;;;;;;;;;;22.20;99.90;;;;;;5095110;28;19908;-68
2024/01/15 10:10:44;;;;;;;;;;;22.20;99.90;;;;;;5095022;28;20426;-65
2024/01/15 10:13:12;;;;;;;;;;;22.20;99.90;;;;;;5094919;28;20300;-68
2024/01/15 10:15:38;;;;;;;;;;;22.30;99.90;;;;;;5094847;28;19915;-62
2024/01/15 10:18:05;;;;;;;;;;;22.20;99.90;;;;;;5094905;28;19908;-66
2024/01/15 10:20:35;;;;;;;;;;;22.20;99.90;;;;;;5094315;28;19908;-68
2024/01/15 10:23:01;;;;;;;;;;;22.20;99.90;;;;;;5094755;28;19908;-66
2024/01/15 10:25:28;;;;;;;;;;;22.20;99.90;;;;;;5094773;28;20289;-68
2024/01/15 10:28:00;;;;;;;;;;;22.20;99.90;;;;;;5094580;28;19915;-62
2024/01/15 10:30:26;;;;;;;;;;;22.10;99.90;;;;;;5094586;28;19912;-68
2024/01/15 10:32:59;;;;;;;;;;;22.10;99.90;;;;;;5094421;28;19927;-69
2024/01/15 10:35:33;;;;;;;;;;;22.00;99.90;;;;;;5094475;28;19908;-68
2024/01/15 10:38:00;;;;;;;;;;;22.00;99.90;;;;;;5094437;28;19909;-62
2024/01/15 10:40:27;;;;;;;;;;;21.90;99.90;;;;;;5094370;28;19944;-67
2024/01/15 10:42:53;;;;;;;;;;;21.80;99.90;;;;;;5094426;28;20349;-64
2024/01/15 10:45:20;;;;;;;;;;;21.70;99.90;;;;;;5094305;28;20303;-62
2024/01/15 10:47:48;;;;;;;;;;;21.60;99.90;;;;;;5094226;28;19908;-66
2024/01/15 10:50:15;;;;;;;;;;;21.50;99.90;;;;;;5094237;28;19908;-62
2024/01/15 10:52:45;;;;;;;;;;;21.50;99.90;;;;;;5093955;28;19923;-65
2024/01/15 10:55:12;;;;;;;;;;;21.30;99.90;;;;;;5093872;28;19963;-65
2024/01/15 10:57:39;;;;;;;;;;;21.20;99.90;;;;;;5094120;28;19908;-63
2024/01/15 11:00:06;;;;;;;;;;;21.20;99.90;;;;;;5094029;28;19908;-64
2024/01/15 11:02:36;;;;;;;;;;;21.20;99.90;;;;;;5093839;28;19955;-68
2024/01/15 11:05:03;;;;;;;;;;;21.20;99.90;;;;;;5093950;28;19919;-68
2024/01/15 11:07:32;;;;;;;;;;;21.20;99.90;;;;;;5093732;28;20042;-64
2024/01/15 11:09:59;;;;;;;;;;;21.10;99.90;;;;;;5093961;28;19909;-61
2024/01/15 11:12:26;;;;;;;;;;;21.20;99.90;;;;;;5093688;28;19924;-67
2024/01/15 11:14:54;;;;;;;;;;;21.10;99.90;;;;;;5093519;28;19908;-69
2024/01/15 11:17:21;;;;;;;;;;;21.10;99.90;;;;;;5093798;28;19912;-62
2024/01/15 11:19:52;;;;;;;;;;;21.00;99.90;;;;;;5093664;28;19930;-62
2024/01/15 11:22:30;;;;;;;;;;;21.00;99.90;;;;;;5093666;28;19908;-61
2024/01/15 11:25:26;;;;;;;;;;;21.10;99.90;;;;;;5093459;28;19908;-67
2024/01/15 11:27:53;;;;;;;;;;;21.00;99.90;;;;;;5088696;28;19908;-67
2024/01/15 11:30:22;;;;;;;;;;;21.00;99.90;;;;;;5093292;28;19934;-65
2024/01/15 11:32:49;;;;;;;;;;;21.00;99.90;;;;;;5092385;28;19924;-65
2024/01/15 11:35:16;;;;;;;;;;;21.00;99.90;;;;;;5093199;28;19935;-65
2024/01/15 11:37:51;;;;;;;;;;;20.90;99.90;;;;;;5093413;28;19908;-67
2024/01/15 11:40:19;;;;;;;;;;;20.90;99.90;;;;;;5093311;28;19943;-61
2024/01/15 11:42:47;;;;;;;;;;;21.00;99.90;;;;;;5093312;28;20375;-60
2024/01/15 11:45:18;;;;;;;;;;;21.00;99.90;;;;;;5093492;28;19908;-68
2024/01/15 11:47:46;;;;;;;;;;;21.00;99.90;;;;;;5093322;28;19954;-64
2024/01/15 11:50:12;;;;;;;;;;;21.00;99.90;;;;;;5093464;28;19947;-62
2024/01/15 11:52:39;;;;;;;;;;;20.90;99.90;;;;;;5093088;28;19961;-67
2024/01/15 11:55:13;;;;;;;;;;;21.00;99.90;;;;;;5092872;28;19931;-66
2024/01/15 11:57:40;;;;;;;;;;;21.00;99.90;;;;;;5093382;28;19908;-66
2024/01/15 12:00:13;;;;;;;;;;;20.90;99.90;;;;;;5092943;28;20478;-66
2024/01/15 12:02:45;;;;;;;;;;;20.90;99.90;;;;;;5092946;28;19908;-62
2024/01/15 12:05:13;;;;;;;;;;;20.90;99.90;;;;;;5093175;28;19909;-66
2024/01/15 12:07:40;;;;;;;;;;;20.90;99.90;;;;;;5093019;28;19908;-65
2024/01/15 12:10:11;;;;;;;;;;;20.90;99.90;;;;;;5093037;28;19912;-67
2024/01/15 12:12:40;;;;;;;;;;;20.80;99.90;;;;;;5092666;28;19927;-65
2024/01/15 12:15:07;;;;;;;;;;;20.90;99.90;;;;;;5092809;28;20006;-61
2024/01/15 12:17:35;;;;;;;;;;;20.90;99.90;;;;;;5092964;28;19915;-63
2024/01/15 12:20:02;;;;;;;;;;;21.00;99.90;;;;;;5092761;28;20380;-64
2024/01/15 12:22:29;;;;;;;;;;;21.00;99.90;;;;;;5092739;28;19951;-66
2024/01/15 12:24:55;;;;;;;;;;;21.00;99.90;;;;;;5092927;28;19999;-67
2024/01/15 12:27:22;;;;;;;;;;;21.10;99.90;;;;;;5092899;28;19908;-65
2024/01/15 12:29:49;;;;;;;;;;;21.10;99.90;;;;;;5092807;28;20399;-69
2024/01/15 12:32:15;;;;;;;;;;;21.10;99.90;;;;;;5092944;28;19916;-65
2024/01/15 12:34:43;;;;;;;;;;;21.10;99.90;;;;;;5092703;28;19908;-62
2024/01/15 12:37:11;;;;;;;;;;;21.10;99.90;;;;;;5092761;28;19908;-64
2024/01/15 12:39:38;;;;;;;;;;;21.10;99.90;;;;;;5092648;28;19909;-68
2024/01/15 12:42:05;;;;;;;;;;;21.10;99.90;;;;;;5092796;28;20404;-68
2024/01/15 12:44:32;;;;;;;;;;;21.10;99.90;;;;;;5095516;28;19915;-62
2024/01/15 12:46:59;;;;;;;;;;;21.20;99.90;;;;;;5096481;28;20381;-63
2024/01/15 12:49:26;;;;;;;;;;;21.10;99.90;;;;;;5096502;28;19908;-65
2024/01/15 12:51:59;;;;;;;;;;;21.10;99.90;;;;;;5096295;28;19916;-68
2024/01/15 12:54:26;;;;;;;;;;;21.10;99.90;;;;;;5095847;28;19908;-64
2024/01/15 12:56:53;;;;;;;;;;;21.00;99.90;;;;;;5096295;28;19958;-62
2024/01/15 12:59:19;;;;;;;;;;;21.00;99.90;;;;;;5096707;28;19908;-68
2024/01/15 13:01:46;;;;;;;;;;;21.10;99.90;;;;;;5096601;28;19908;-68
2024/01/15 13:04:23;;;;;;;;;;;21.20;99.90;;;;;;5096100;28;20364;-66
2024/01/15 13:06:50;;;;;;;;;;;21.20;99.90;;;;;;5096460;28;19936;-61
2024/01/15 13:09:17;;;;;;;;;;;21.20;99.90;;;;;;5096290;28;19961;-63
2024/01/15 13:11:47;;;;;;;;;;;21.20;99.90;;;;;;5096205;28;19955;-67
2024/01/15 13:14:13;;;;;;;;;;;21.20;99.90;;;;;;5095982;28;19944;-65
2024/01/15 13:16:41;;;;;;;;;;;21.10;99.90;;;;;;5095799;28;19915;-65
2024/01/15 13:19:09;;;;;;;;;;;21.20;99.90;;;;;;5096163;28;19908;-67
2024/01/15 13:21:35;;;;;;;;;;;21.20;99.90;;;;;;5095941;28;20301;-69
2024/01/15 13:24:03;;;;;;;;;;;21.20;99.90;;;;;;5095815;28;19916;-67
2024/01/15 13:26:29;;;;;;;;;;;21.10;99.90;;;;;;5095654;28;19908;-62
2024/01/15 13:28:56;;;;;;;;;;;21.10;99.90;;;;;;5095618;28;19985;-64
2024/01/15 13:31:23;;;;;;;;;;;21.10;99.90;;;;;;5095800;28;19912;-67
2024/01/15 13:33:49;;;;;;;;;;;21.00;99.90;;;;;;5095757;28;19912;-64
2024/01/15 13:36:16;;;;;;;;;;;21.10;99.90;;;;;;5095794;28;19966;-64
2024/01/15 13:38:43;;;;;;;;;;;21.10;99.90;;;;;;5095576;28;19912;-66
2024/01/15 13:41:10;;;;;;;;;;;21.10;99.90;;;;;;5095772;28;19912;-67
2024/01/15 13:43:36;;;;;;;;;;;21.10;99.90;;;;;;5095644;28;19915;-62
2024/01/15 13:46:04;;;;;;;;;;;21.10;99.90;;;;;;5095605;28;19909;-63
2024/01/15 13:48:34;;;;;;;;;;;21.10;99.90;;;;;;5095408;28;20049;-67
2024/01/15 13:51:00;;;;;;;;;;;21.10;99.90;;;;;;5095380;28;19912;-67
2024/01/15 13:53:27;;;;;;;;;;;21.10;99.90;;;;;;5095308;28;19960;-68
2024/01/15 13:55:54;;;;;;;;;;;21.10;99.90;;;;;;5094545;28;20019;-66
2024/01/15 13:58:21;;;;;;;;;;;21.10;99.90;;;;;;5095467;28;20569;-65
2024/01/15 14:00:48;;;;;;;;;;;21.10;99.90;;;;;;5095196;28;19908;-68
2024/01/15 14:03:15;;;;;;;;;;;21.00;99.90;;;;;;5094955;28;19912;-67
2024/01/15 14:05:42;;;;;;;;;;;21.00;99.90;;;;;;5095158;28;19937;-65
2024/01/15 14:08:08;;;;;;;;;;;21.00;99.90;;;;;;5095395;28;19908;-68
2024/01/15 14:10:35;;;;;;;;;;;21.00;99.90;;;;;;5095186;28;19942;-66
2024/01/15 14:13:01;;;;;;;;;;;21.00;99.90;;;;;;5095011;28;20429;-61
2024/01/15 14:15:28;;;;;;;;;;;20.90;99.90;;;;;;5094897;28;19908;-68
2024/01/15 14:17:55;;;;;;;;;;;20.90;99.90;;;;;;5094867;28;19912;-67